Time;durP1;ratioP1;P1;durP2;ratioP2;P2;SDS_P1;SDS_P2;PMS_P1;PMS_P2;Temp;Humidity;BMP_temperature;BMP_pressure;BME280_temperature;BME280_humidity;BME280_pressure;Samples;Min_cycle;Max_cycle;Signal;HPM_P1;HPM_P2
2022/07/30 00:00:57;;;;;;;;;;;25.60;86.10;;;;;;5088656;28;20335;-67
2022/07/30 00:03:22;;;;;;;;;;;25.60;86.10;;;;;;5055432;28;19917;-67
2022/07/30 00:05:48;;;;;;;;;;;25.60;86.20;;;;;;5056759;28;19955;-67
2022/07/30 00:08:14;;;;;;;;;;;25.50;86.10;;;;;;5055157;28;19909;-66
2022/07/30 00:10:39;;;;;;;;;;;25.60;86.20;;;;;;5056729;28;19915;-67
2022/07/30 00:13:05;;;;;;;;;;;25.50;86.10;;;;;;5055358;28;20272;-67
2022/07/30 00:15:31;;;;;;;;;;;25.60;86.20;;;;;;5055278;28;19909;-67
2022/07/30 00:17:56;;;;;;;;;;;25.50;86.10;;;;;;5056534;28;19915;-67
2022/07/30 00:20:22;;;;;;;;;;;25.50;86.20;;;;;;5056519;28;20052;-67
2022/07/30 00:22:47;;;;;;;;;;;25.50;86.20;;;;;;5056352;28;19919;-67
2022/07/30 00:25:13;;;;;;;;;;;25.50;86.20;;;;;;5055221;28;19917;-66
2022/07/30 00:27:38;;;;;;;;;;;25.50;86.10;;;;;;5056359;28;19915;-67
2022/07/30 00:30:05;;;;;;;;;;;25.50;86.10;;;;;;5056590;28;19909;-67
2022/07/30 00:32:30;;;;;;;;;;;25.60;86.20;;;;;;5055773;28;19971;-67
2022/07/30 00:34:56;;;;;;;;;;;25.50;86.10;;;;;;5055943;28;19999;-67
2022/07/30 00:37:21;;;;;;;;;;;25.50;86.20;;;;;;5055873;28;19916;-67
2022/07/30 00:39:47;;;;;;;;;;;25.50;86.20;;;;;;5054816;28;20042;-67
2022/07/30 00:42:12;;;;;;;;;;;25.50;86.10;;;;;;5055984;28;19927;-67
2022/07/30 00:44:38;;;;;;;;;;;25.50;86.10;;;;;;5055698;28;20007;-67
2022/07/30 00:47:03;;;;;;;;;;;25.50;86.20;;;;;;5055988;28;19919;-67
2022/07/30 00:49:29;;;;;;;;;;;25.50;86.10;;;;;;5055480;28;19909;-67
2022/07/30 00:51:54;;;;;;;;;;;25.50;86.10;;;;;;5055756;28;19909;-67
2022/07/30 00:54:20;;;;;;;;;;;25.50;86.10;;;;;;5054402;28;19916;-67
2022/07/30 00:56:46;;;;;;;;;;;25.50;86.10;;;;;;5055414;28;19916;-66
2022/07/30 00:59:12;;;;;;;;;;;25.50;86.10;;;;;;5054129;28;19921;-67
2022/07/30 01:01:38;;;;;;;;;;;25.50;86.10;;;;;;5055303;28;20383;-67
2022/07/30 01:04:03;;;;;;;;;;;25.50;86.30;;;;;;5054940;28;20325;-67
2022/07/30 01:06:29;;;;;;;;;;;25.50;86.20;;;;;;5055452;28;20382;-67
2022/07/30 01:08:55;;;;;;;;;;;25.50;86.10;;;;;;5055567;28;19992;-67
2022/07/30 01:11:21;;;;;;;;;;;25.50;86.10;;;;;;5055529;28;19909;-67
2022/07/30 01:13:47;;;;;;;;;;;25.50;86.10;;;;;;5055407;28;19909;-67
2022/07/30 01:16:12;;;;;;;;;;;25.50;86.10;;;;;;5054379;28;19913;-67
2022/07/30 01:21:30;;;;;;;;;;;25.50;86.10;;;;;;5055008;28;19924;-67
2022/07/30 01:23:58;;;;;;;;;;;25.50;86.10;;;;;;5055016;28;19919;-67
2022/07/30 01:26:24;;;;;;;;;;;25.50;86.10;;;;;;5055264;28;19940;-67
2022/07/30 01:28:52;;;;;;;;;;;25.60;86.10;;;;;;5054847;28;19916;-67
2022/07/30 01:31:19;;;;;;;;;;;25.50;86.10;;;;;;5055174;28;19909;-66
2022/07/30 01:33:47;;;;;;;;;;;25.60;86.10;;;;;;5054996;28;19909;-67
2022/07/30 01:36:14;;;;;;;;;;;25.50;86.10;;;;;;5054898;28;19909;-66
2022/07/30 01:38:41;;;;;;;;;;;25.50;86.10;;;;;;5055042;28;19909;-67
2022/07/30 01:41:07;;;;;;;;;;;25.50;86.10;;;;;;5054848;28;19913;-67
2022/07/30 01:43:34;;;;;;;;;;;25.50;86.10;;;;;;5054851;28;19940;-67
2022/07/30 01:46:00;;;;;;;;;;;25.50;86.10;;;;;;5054716;28;19929;-67
2022/07/30 01:48:26;;;;;;;;;;;25.50;86.10;;;;;;5053569;28;19915;-67
2022/07/30 01:50:53;;;;;;;;;;;25.50;86.20;;;;;;5054706;28;19912;-66
2022/07/30 01:53:22;;;;;;;;;;;25.50;86.20;;;;;;5054787;28;19908;-66
2022/07/30 01:55:48;;;;;;;;;;;25.50;86.20;;;;;;5053418;28;19960;-66
2022/07/30 01:58:16;;;;;;;;;;;25.50;86.20;;;;;;5053379;28;19909;-67
2022/07/30 02:00:42;;;;;;;;;;;25.50;86.20;;;;;;5053083;28;19920;-67
2022/07/30 02:03:09;;;;;;;;;;;25.50;86.10;;;;;;5054474;28;19916;-67
2022/07/30 02:05:35;;;;;;;;;;;25.50;86.10;;;;;;5054203;28;19909;-67
2022/07/30 02:08:15;;;;;;;;;;;25.50;86.10;;;;;;5053824;28;20303;-67
2022/07/30 02:10:47;;;;;;;;;;;25.50;86.20;;;;;;5053198;28;19909;-67
2022/07/30 02:13:16;;;;;;;;;;;25.50;86.20;;;;;;5054431;28;19913;-67
2022/07/30 02:15:48;;;;;;;;;;;25.50;86.20;;;;;;5053006;28;19958;-67
2022/07/30 02:18:34;;;;;;;;;;;25.50;86.20;;;;;;5054343;28;19908;-67
2022/07/30 02:21:02;;;;;;;;;;;25.50;86.20;;;;;;5056727;28;19952;-67
2022/07/30 02:23:28;;;;;;;;;;;25.50;86.20;;;;;;5052916;28;20363;-67
2022/07/30 02:25:55;;;;;;;;;;;25.50;86.10;;;;;;5053012;28;19955;-67
2022/07/30 02:28:21;;;;;;;;;;;25.50;86.10;;;;;;5054221;28;20348;-66
2022/07/30 02:30:49;;;;;;;;;;;25.50;86.10;;;;;;5054242;28;19913;-67
2022/07/30 02:33:16;;;;;;;;;;;25.50;86.10;;;;;;5052895;28;19908;-67
2022/07/30 02:35:41;;;;;;;;;;;25.50;86.10;;;;;;5052899;28;19916;-67
2022/07/30 02:38:08;;;;;;;;;;;25.50;86.10;;;;;;5054127;28;19909;-67
2022/07/30 02:40:34;;;;;;;;;;;25.50;86.10;;;;;;5054352;28;19923;-67
2022/07/30 02:43:00;;;;;;;;;;;25.50;86.10;;;;;;5053620;28;19920;-67
2022/07/30 02:45:26;;;;;;;;;;;25.50;86.10;;;;;;5052772;28;19912;-66
2022/07/30 02:47:53;;;;;;;;;;;25.50;86.10;;;;;;5053970;28;20256;-67
2022/07/30 02:50:19;;;;;;;;;;;25.50;86.10;;;;;;5053591;28;20338;-67
2022/07/30 02:52:46;;;;;;;;;;;25.50;86.20;;;;;;5053916;28;19963;-67
2022/07/30 02:55:11;;;;;;;;;;;25.50;86.20;;;;;;5053639;28;20020;-67
2022/07/30 02:57:40;;;;;;;;;;;25.50;86.20;;;;;;5053551;28;19967;-67
2022/07/30 03:00:06;;;;;;;;;;;25.50;86.20;;;;;;5065180;28;20348;-67
2022/07/30 03:02:32;;;;;;;;;;;25.50;86.20;;;;;;5073791;28;19927;-67
2022/07/30 03:04:58;;;;;;;;;;;25.50;86.20;;;;;;5055878;28;19912;-67
2022/07/30 03:07:25;;;;;;;;;;;25.50;86.20;;;;;;5073631;28;19951;-66
2022/07/30 03:09:53;;;;;;;;;;;25.50;86.20;;;;;;5055993;28;19916;-67
2022/07/30 03:12:20;;;;;;;;;;;25.40;86.10;;;;;;5073289;28;19908;-67
2022/07/30 03:14:45;;;;;;;;;;;25.50;86.20;;;;;;5055440;28;19909;-67
2022/07/30 03:17:13;;;;;;;;;;;25.50;86.20;;;;;;5055745;28;20001;-67
2022/07/30 03:19:40;;;;;;;;;;;25.50;86.20;;;;;;5073482;28;19908;-67
2022/07/30 03:22:06;;;;;;;;;;;25.50;86.20;;;;;;5055620;28;19913;-67
2022/07/30 03:24:33;;;;;;;;;;;25.50;86.20;;;;;;5073622;28;19917;-67
2022/07/30 03:26:59;;;;;;;;;;;25.50;86.20;;;;;;5073615;28;20007;-67
2022/07/30 03:29:25;;;;;;;;;;;25.50;86.20;;;;;;5077123;28;19955;-66
2022/07/30 03:31:51;;;;;;;;;;;25.50;86.20;;;;;;5077122;28;19916;-67
2022/07/30 03:34:19;;;;;;;;;;;25.50;86.20;;;;;;5059262;28;19916;-66
2022/07/30 03:36:44;;;;;;;;;;;25.50;86.20;;;;;;5059386;28;19913;-67
2022/07/30 03:39:11;;;;;;;;;;;25.50;86.20;;;;;;5077234;28;19915;-67
2022/07/30 03:41:36;;;;;;;;;;;25.50;86.20;;;;;;5077128;28;19913;-67
2022/07/30 03:44:02;;;;;;;;;;;25.50;86.20;;;;;;5077099;28;19919;-67
2022/07/30 03:46:28;;;;;;;;;;;25.40;86.20;;;;;;5076909;28;20363;-66
2022/07/30 03:48:54;;;;;;;;;;;25.50;86.20;;;;;;5077400;28;19912;-67
2022/07/30 03:51:20;;;;;;;;;;;25.40;86.20;;;;;;5076734;28;19908;-66
2022/07/30 03:53:46;;;;;;;;;;;25.40;86.20;;;;;;5076748;28;19914;-67
2022/07/30 03:56:13;;;;;;;;;;;25.40;86.20;;;;;;5076836;28;19962;-67
2022/07/30 03:58:38;;;;;;;;;;;25.40;86.20;;;;;;5077108;28;20022;-67
2022/07/30 04:01:04;;;;;;;;;;;25.40;86.20;;;;;;5076695;28;19950;-67
2022/07/30 04:03:30;;;;;;;;;;;25.40;86.20;;;;;;5076664;28;20011;-67
2022/07/30 04:05:56;;;;;;;;;;;25.40;86.20;;;;;;5058737;28;19954;-67
2022/07/30 04:08:21;;;;;;;;;;;25.40;86.20;;;;;;5076251;28;19908;-66
2022/07/30 04:10:47;;;;;;;;;;;25.40;86.20;;;;;;5076234;28;19916;-67
2022/07/30 04:13:13;;;;;;;;;;;25.40;86.20;;;;;;5076360;28;20405;-67
2022/07/30 04:15:48;;;;;;;;;;;25.40;86.20;;;;;;5076026;28;19908;-66
2022/07/30 04:18:14;;;;;;;;;;;25.40;86.20;;;;;;5076301;28;20026;-67
2022/07/30 04:20:40;;;;;;;;;;;25.50;86.20;;;;;;5076248;28;19916;-67
2022/07/30 04:23:06;;;;;;;;;;;25.40;86.20;;;;;;5058270;28;19912;-67
2022/07/30 04:25:32;;;;;;;;;;;25.40;86.20;;;;;;5076341;28;19962;-67
2022/07/30 04:27:58;;;;;;;;;;;25.40;86.20;;;;;;5075964;28;20003;-67
2022/07/30 04:30:23;;;;;;;;;;;25.40;86.20;;;;;;5075883;28;19947;-66
2022/07/30 04:32:49;;;;;;;;;;;25.40;86.20;;;;;;5076135;28;19909;-66
2022/07/30 04:35:14;;;;;;;;;;;25.40;86.30;;;;;;5058184;28;19909;-67
2022/07/30 04:37:40;;;;;;;;;;;25.40;86.20;;;;;;5076103;28;19909;-67
2022/07/30 04:40:06;;;;;;;;;;;25.40;86.20;;;;;;5074722;28;19915;-67
2022/07/30 04:42:31;;;;;;;;;;;25.40;86.10;;;;;;5075864;28;19917;-67
2022/07/30 04:44:57;;;;;;;;;;;25.40;86.20;;;;;;5057875;28;19913;-67
2022/07/30 04:47:22;;;;;;;;;;;25.40;86.20;;;;;;5075784;28;19954;-67
2022/07/30 04:49:49;;;;;;;;;;;25.40;86.20;;;;;;5075813;28;19954;-67
2022/07/30 04:52:16;;;;;;;;;;;25.40;86.20;;;;;;5075795;28;19978;-67
2022/07/30 04:54:43;;;;;;;;;;;25.40;86.20;;;;;;5057612;28;19915;-67
2022/07/30 04:57:12;;;;;;;;;;;25.40;86.20;;;;;;5057606;28;20373;-67
2022/07/30 04:59:38;;;;;;;;;;;25.50;86.20;;;;;;5054203;28;19921;-67
2022/07/30 05:02:05;;;;;;;;;;;25.40;86.20;;;;;;5055655;28;19923;-67
2022/07/30 05:04:31;;;;;;;;;;;25.40;86.10;;;;;;5054324;28;19966;-67
2022/07/30 05:06:58;;;;;;;;;;;25.50;86.30;;;;;;5054260;28;19920;-67
2022/07/30 05:09:24;;;;;;;;;;;25.50;86.20;;;;;;5055087;28;20359;-66
2022/07/30 05:11:50;;;;;;;;;;;25.50;86.20;;;;;;5055090;28;19963;-66
2022/07/30 05:14:15;;;;;;;;;;;25.50;86.20;;;;;;5053964;28;20000;-67
2022/07/30 05:16:41;;;;;;;;;;;25.50;86.20;;;;;;5055065;28;19951;-66
2022/07/30 05:19:06;;;;;;;;;;;25.40;86.20;;;;;;5055557;28;20245;-67
2022/07/30 05:21:32;;;;;;;;;;;25.40;86.20;;;;;;5055179;28;20298;-67
2022/07/30 05:23:57;;;;;;;;;;;25.50;86.20;;;;;;5055097;28;19912;-67
2022/07/30 05:26:23;;;;;;;;;;;25.50;86.30;;;;;;5054977;28;20267;-67
2022/07/30 05:28:48;;;;;;;;;;;25.40;86.10;;;;;;5053663;28;19916;-67
2022/07/30 05:31:14;;;;;;;;;;;25.50;86.20;;;;;;5054555;28;19932;-67
2022/07/30 05:33:39;;;;;;;;;;;25.50;86.20;;;;;;5054673;28;19948;-67
2022/07/30 05:36:05;;;;;;;;;;;25.40;86.20;;;;;;5053589;28;19913;-67
2022/07/30 05:38:30;;;;;;;;;;;25.40;86.20;;;;;;5054836;28;20403;-66
2022/07/30 05:40:56;;;;;;;;;;;25.40;86.20;;;;;;5055088;28;20328;-66
2022/07/30 05:43:21;;;;;;;;;;;25.40;86.80;;;;;;5054332;28;19921;-66
2022/07/30 05:45:47;;;;;;;;;;;25.40;86.20;;;;;;5054359;28;19909;-67
2022/07/30 05:48:12;;;;;;;;;;;25.50;86.30;;;;;;5053348;28;19908;-67
2022/07/30 05:50:38;;;;;;;;;;;25.40;86.20;;;;;;5053977;28;19908;-67
2022/07/30 05:53:03;;;;;;;;;;;25.40;86.20;;;;;;5054552;28;19962;-66
2022/07/30 05:55:28;;;;;;;;;;;25.40;86.20;;;;;;5054168;28;19908;-66
2022/07/30 05:57:54;;;;;;;;;;;25.40;86.30;;;;;;5054592;28;19958;-66
2022/07/30 06:00:19;;;;;;;;;;;25.40;86.20;;;;;;5065208;28;19977;-66
2022/07/30 06:02:45;;;;;;;;;;;25.40;86.20;;;;;;5074510;28;19912;-66
2022/07/30 06:05:11;;;;;;;;;;;25.40;86.20;;;;;;5074090;28;19912;-67
2022/07/30 06:07:36;;;;;;;;;;;25.40;86.80;;;;;;5074021;28;20003;-66
2022/07/30 06:10:02;;;;;;;;;;;25.40;86.20;;;;;;5074270;28;19944;-67
2022/07/30 06:12:28;;;;;;;;;;;25.40;86.30;;;;;;5073761;28;19915;-67
2022/07/30 06:14:53;;;;;;;;;;;25.40;86.30;;;;;;5074157;28;19995;-66
2022/07/30 06:17:19;;;;;;;;;;;25.40;86.30;;;;;;5074252;28;19908;-67
2022/07/30 06:19:44;;;;;;;;;;;25.40;86.30;;;;;;5074246;28;20264;-67
2022/07/30 06:22:10;;;;;;;;;;;25.40;86.30;;;;;;5056163;28;19916;-66
2022/07/30 06:24:36;;;;;;;;;;;25.40;86.30;;;;;;5073791;28;20359;-66
2022/07/30 06:27:02;;;;;;;;;;;25.40;86.30;;;;;;5074320;28;19958;-66
2022/07/30 06:29:27;;;;;;;;;;;25.40;86.30;;;;;;5056075;28;19909;-66
2022/07/30 06:31:52;;;;;;;;;;;25.40;86.30;;;;;;5073705;28;19912;-67
2022/07/30 06:34:18;;;;;;;;;;;25.40;86.30;;;;;;5073638;28;20359;-67
2022/07/30 06:36:43;;;;;;;;;;;25.40;86.30;;;;;;5073529;28;19951;-66
2022/07/30 06:39:09;;;;;;;;;;;25.40;86.90;;;;;;5055742;28;20370;-67
2022/07/30 06:41:34;;;;;;;;;;;25.40;86.30;;;;;;5073376;28;19958;-67
2022/07/30 06:44:00;;;;;;;;;;;25.40;86.30;;;;;;5073389;28;19919;-67
2022/07/30 06:46:25;;;;;;;;;;;25.40;86.30;;;;;;5073701;28;19915;-66
2022/07/30 06:48:51;;;;;;;;;;;25.40;86.30;;;;;;5055767;28;19962;-66
2022/07/30 06:51:16;;;;;;;;;;;25.40;86.30;;;;;;5073738;28;20333;-67
2022/07/30 06:53:44;;;;;;;;;;;25.40;86.30;;;;;;5073362;28;19962;-66
2022/07/30 06:56:10;;;;;;;;;;;25.40;86.40;;;;;;5055208;28;19915;-66
2022/07/30 06:58:36;;;;;;;;;;;25.30;86.30;;;;;;5073075;28;19908;-67
2022/07/30 07:01:02;;;;;;;;;;;25.30;86.30;;;;;;5072915;28;19965;-66
2022/07/30 07:03:27;;;;;;;;;;;25.30;86.30;;;;;;5075383;28;20362;-66
2022/07/30 07:05:53;;;;;;;;;;;25.40;86.40;;;;;;5077585;28;19913;-67
2022/07/30 07:08:18;;;;;;;;;;;25.30;86.30;;;;;;5077204;28;19908;-66
2022/07/30 07:10:44;;;;;;;;;;;25.30;86.30;;;;;;5077126;28;20006;-66
2022/07/30 07:13:09;;;;;;;;;;;25.30;86.30;;;;;;5059454;28;19908;-66
2022/07/30 07:15:35;;;;;;;;;;;25.40;86.30;;;;;;5077017;28;19908;-66
2022/07/30 07:18:00;;;;;;;;;;;25.40;86.30;;;;;;5059500;28;20011;-67
2022/07/30 07:20:26;;;;;;;;;;;25.40;86.30;;;;;;5077161;28;19908;-66
2022/07/30 07:22:51;;;;;;;;;;;25.40;86.20;;;;;;5077225;28;19912;-67
2022/07/30 07:25:17;;;;;;;;;;;25.40;86.20;;;;;;5076991;28;20340;-67
2022/07/30 07:27:42;;;;;;;;;;;25.40;86.20;;;;;;5059224;28;20007;-66
2022/07/30 07:30:08;;;;;;;;;;;25.40;86.20;;;;;;5059526;28;19912;-67
2022/07/30 07:32:34;;;;;;;;;;;25.40;86.20;;;;;;5077008;28;19962;-67
2022/07/30 07:34:59;;;;;;;;;;;25.40;86.20;;;;;;5058894;28;19931;-66
2022/07/30 07:37:25;;;;;;;;;;;25.40;86.20;;;;;;5076659;28;19908;-67
2022/07/30 07:39:50;;;;;;;;;;;25.40;86.20;;;;;;5076761;28;19913;-67
2022/07/30 07:42:16;;;;;;;;;;;25.40;86.20;;;;;;5058703;28;19912;-66
2022/07/30 07:44:41;;;;;;;;;;;25.40;86.80;;;;;;5076456;28;20287;-66
2022/07/30 07:47:07;;;;;;;;;;;25.40;86.20;;;;;;5076898;28;19964;-66
2022/07/30 07:49:33;;;;;;;;;;;25.50;86.20;;;;;;5076747;28;19912;-66
2022/07/30 07:51:58;;;;;;;;;;;25.40;86.10;;;;;;5058901;28;19915;-66
2022/07/30 07:54:24;;;;;;;;;;;25.40;86.10;;;;;;5076095;28;19909;-66
2022/07/30 07:56:55;;;;;;;;;;;25.40;86.10;;;;;;5075851;28;20355;-67
2022/07/30 07:59:20;;;;;;;;;;;25.40;86.10;;;;;;5076388;28;20348;-66
2022/07/30 08:01:46;;;;;;;;;;;25.40;86.10;;;;;;5076454;28;20014;-66
2022/07/30 08:04:11;;;;;;;;;;;25.40;86.10;;;;;;5076487;28;19962;-66
2022/07/30 08:06:37;;;;;;;;;;;25.40;86.20;;;;;;5076131;28;19944;-67
2022/07/30 08:09:02;;;;;;;;;;;25.40;86.10;;;;;;5058226;28;20019;-67
2022/07/30 08:11:28;;;;;;;;;;;25.40;86.10;;;;;;5058283;28;19954;-66
2022/07/30 08:13:54;;;;;;;;;;;25.40;86.10;;;;;;5075689;28;19909;-66
2022/07/30 08:16:20;;;;;;;;;;;25.40;86.10;;;;;;5057922;28;20256;-67
2022/07/30 08:18:45;;;;;;;;;;;25.40;86.10;;;;;;5058098;28;19909;-67
2022/07/30 08:21:11;;;;;;;;;;;25.40;86.10;;;;;;5076224;28;19908;-67
2022/07/30 08:23:37;;;;;;;;;;;25.40;86.10;;;;;;5057860;28;19920;-66
2022/07/30 08:26:02;;;;;;;;;;;25.40;86.10;;;;;;5075976;28;19908;-66
2022/07/30 08:28:28;;;;;;;;;;;25.40;86.10;;;;;;5058289;28;20019;-66
2022/07/30 08:30:54;;;;;;;;;;;25.40;86.60;;;;;;5076094;28;19913;-66
2022/07/30 08:33:19;;;;;;;;;;;25.40;86.10;;;;;;5057547;28;20367;-66
2022/07/30 08:35:45;;;;;;;;;;;25.50;86.20;;;;;;5075563;28;19909;-67
2022/07/30 08:38:11;;;;;;;;;;;25.50;86.20;;;;;;5075577;28;19909;-66
2022/07/30 08:40:37;;;;;;;;;;;25.50;86.10;;;;;;5075729;28;19999;-67
2022/07/30 08:43:04;;;;;;;;;;;25.50;86.10;;;;;;5075805;28;20011;-66
2022/07/30 08:45:30;;;;;;;;;;;25.40;86.00;;;;;;5057793;28;20003;-66
2022/07/30 08:47:56;;;;;;;;;;;25.40;86.00;;;;;;5075609;28;19955;-66
2022/07/30 08:50:22;;;;;;;;;;;25.40;86.10;;;;;;5075167;28;19908;-67
2022/07/30 08:52:48;;;;;;;;;;;25.50;86.10;;;;;;5057476;28;19915;-67
2022/07/30 08:55:14;;;;;;;;;;;25.50;86.10;;;;;;5074999;28;20327;-66
2022/07/30 08:57:40;;;;;;;;;;;25.50;86.10;;;;;;5057212;28;19938;-66
2022/07/30 09:00:06;;;;;;;;;;;25.50;86.10;;;;;;5075318;28;19921;-66
2022/07/30 09:02:32;;;;;;;;;;;25.50;86.10;;;;;;5074944;28;19921;-66
2022/07/30 09:04:57;;;;;;;;;;;25.50;86.00;;;;;;5057267;28;20004;-65
2022/07/30 09:07:23;;;;;;;;;;;25.50;86.10;;;;;;5074939;28;20009;-66
2022/07/30 09:09:48;;;;;;;;;;;25.50;86.00;;;;;;5057255;28;19916;-67
2022/07/30 09:12:32;;;;;;;;;;;25.50;86.00;;;;;;5075190;28;19909;-67
2022/07/30 09:15:08;;;;;;;;;;;25.50;86.00;;;;;;5074666;28;19916;-67
2022/07/30 09:17:46;;;;;;;;;;;25.50;86.00;;;;;;5056781;28;19916;-67
2022/07/30 09:20:12;;;;;;;;;;;25.50;86.00;;;;;;5074498;28;20412;-67
2022/07/30 09:22:41;;;;;;;;;;;25.50;86.00;;;;;;5074590;28;19912;-67
2022/07/30 09:25:07;;;;;;;;;;;25.50;86.00;;;;;;5074014;28;19966;-67
2022/07/30 09:27:46;;;;;;;;;;;25.50;86.00;;;;;;5074490;28;19912;-66
2022/07/30 09:30:11;;;;;;;;;;;25.50;86.00;;;;;;5074614;28;19916;-67
2022/07/30 09:32:50;;;;;;;;;;;25.50;86.00;;;;;;5056426;28;19908;-67
2022/07/30 09:35:17;;;;;;;;;;;25.50;86.00;;;;;;5056661;28;19916;-66
2022/07/30 09:37:43;;;;;;;;;;;25.50;86.00;;;;;;5056552;28;19934;-66
2022/07/30 09:40:12;;;;;;;;;;;25.50;86.00;;;;;;5074272;28;20301;-65
2022/07/30 09:42:38;;;;;;;;;;;25.50;86.00;;;;;;5074414;28;19913;-65
2022/07/30 09:45:07;;;;;;;;;;;25.50;86.00;;;;;;5074595;28;19932;-65
2022/07/30 09:47:33;;;;;;;;;;;25.50;86.00;;;;;;5074794;28;20344;-65
2022/07/30 09:50:05;;;;;;;;;;;25.50;86.00;;;;;;5074086;28;19913;-65
2022/07/30 09:52:31;;;;;;;;;;;25.50;86.00;;;;;;5056270;28;19944;-66
2022/07/30 09:54:56;;;;;;;;;;;25.50;85.90;;;;;;5074385;28;19916;-66
2022/07/30 09:57:22;;;;;;;;;;;25.40;85.80;;;;;;5073958;28;19915;-66
2022/07/30 09:59:48;;;;;;;;;;;25.50;85.90;;;;;;5074108;28;19927;-66
2022/07/30 10:02:13;;;;;;;;;;;25.50;85.90;;;;;;5056145;28;19923;-66
2022/07/30 10:04:39;;;;;;;;;;;25.50;85.90;;;;;;5073954;28;20331;-66
2022/07/30 10:07:15;;;;;;;;;;;25.50;85.90;;;;;;5073931;28;19908;-66
2022/07/30 10:09:44;;;;;;;;;;;25.50;85.90;;;;;;5056064;28;19966;-66
2022/07/30 10:12:12;;;;;;;;;;;25.50;85.90;;;;;;5056058;28;19908;-66
2022/07/30 10:14:39;;;;;;;;;;;25.50;85.90;;;;;;5073467;28;19953;-66
2022/07/30 10:17:05;;;;;;;;;;;25.50;85.90;;;;;;5073690;28;19914;-67
2022/07/30 10:19:31;;;;;;;;;;;25.50;85.90;;;;;;5056043;28;20007;-66
2022/07/30 10:21:57;;;;;;;;;;;25.50;85.90;;;;;;5073539;28;20006;-66
2022/07/30 10:24:23;;;;;;;;;;;25.50;85.90;;;;;;5073424;28;20356;-66
2022/07/30 10:26:50;;;;;;;;;;;25.50;85.90;;;;;;5073597;28;20001;-67
2022/07/30 10:29:16;;;;;;;;;;;25.50;85.90;;;;;;5073313;28;19913;-65
2022/07/30 10:31:45;;;;;;;;;;;25.40;85.80;;;;;;5073724;28;20003;-65
2022/07/30 10:34:12;;;;;;;;;;;25.50;85.90;;;;;;5055553;28;19961;-67
2022/07/30 10:36:40;;;;;;;;;;;25.50;85.90;;;;;;5055659;28;19930;-66
2022/07/30 10:39:06;;;;;;;;;;;25.50;85.90;;;;;;5055416;28;20393;-66
2022/07/30 10:41:39;;;;;;;;;;;25.50;85.90;;;;;;5073477;28;20025;-66
2022/07/30 10:44:07;;;;;;;;;;;25.50;85.90;;;;;;5073953;28;19926;-66
2022/07/30 10:46:40;;;;;;;;;;;25.50;85.90;;;;;;5073701;28;19915;-66
2022/07/30 10:49:07;;;;;;;;;;;25.50;85.90;;;;;;5055504;28;19934;-65
2022/07/30 10:51:41;;;;;;;;;;;25.50;85.90;;;;;;5055712;28;19955;-65
2022/07/30 10:54:26;;;;;;;;;;;25.50;85.80;;;;;;5073129;28;20004;-66
2022/07/30 10:57:12;;;;;;;;;;;25.50;85.80;;;;;;5073393;28;19999;-65
2022/07/30 10:59:46;;;;;;;;;;;25.50;85.80;;;;;;5073055;28;19921;-66
2022/07/30 11:02:12;;;;;;;;;;;25.40;85.70;;;;;;5073229;28;19919;-66
2022/07/30 11:04:38;;;;;;;;;;;25.50;85.80;;;;;;5055120;28;20003;-66
2022/07/30 11:07:31;;;;;;;;;;;25.50;85.80;;;;;;5073291;28;19913;-66
2022/07/30 11:09:59;;;;;;;;;;;25.40;85.70;;;;;;5055461;28;19995;-65
2022/07/30 11:12:44;;;;;;;;;;;25.40;85.70;;;;;;5072877;28;19912;-66
2022/07/30 11:15:11;;;;;;;;;;;25.50;85.70;;;;;;5054769;28;19908;-66
2022/07/30 11:17:55;;;;;;;;;;;25.50;85.70;;;;;;5073102;28;20007;-66
2022/07/30 11:20:21;;;;;;;;;;;25.50;85.70;;;;;;5054774;28;19910;-66
2022/07/30 11:22:48;;;;;;;;;;;25.50;85.60;;;;;;5073447;28;20270;-65
2022/07/30 11:25:26;;;;;;;;;;;25.50;85.60;;;;;;5055148;28;20359;-66
2022/07/30 11:27:52;;;;;;;;;;;25.50;85.60;;;;;;5073645;28;19932;-66
2022/07/30 11:30:21;;;;;;;;;;;25.40;85.50;;;;;;5055333;28;20007;-66
2022/07/30 11:32:49;;;;;;;;;;;25.50;85.60;;;;;;5073350;28;19916;-65
2022/07/30 11:35:15;;;;;;;;;;;25.50;85.60;;;;;;5073333;28;19952;-66
2022/07/30 11:37:55;;;;;;;;;;;25.50;85.60;;;;;;5072967;28;19913;-66
2022/07/30 11:40:22;;;;;;;;;;;25.50;85.60;;;;;;5054941;28;20336;-66
2022/07/30 11:42:48;;;;;;;;;;;25.50;85.60;;;;;;5073101;28;20015;-66
2022/07/30 11:45:17;;;;;;;;;;;25.50;85.60;;;;;;5072956;28;19959;-66
2022/07/30 11:47:46;;;;;;;;;;;25.50;85.60;;;;;;5054983;28;19909;-66
2022/07/30 11:50:19;;;;;;;;;;;25.50;85.60;;;;;;5075709;28;19931;-66
2022/07/30 11:52:52;;;;;;;;;;;25.40;85.50;;;;;;5076764;28;19909;-66
2022/07/30 11:55:30;;;;;;;;;;;25.50;85.60;;;;;;5076596;28;19967;-66
2022/07/30 11:57:56;;;;;;;;;;;25.50;85.50;;;;;;5076934;28;20008;-66
2022/07/30 12:00:22;;;;;;;;;;;25.40;85.40;;;;;;5076734;28;19928;-66
2022/07/30 12:02:48;;;;;;;;;;;25.50;85.50;;;;;;5057995;28;19913;-66
2022/07/30 12:05:14;;;;;;;;;;;25.50;85.50;;;;;;5076394;28;19917;-66
2022/07/30 12:07:39;;;;;;;;;;;25.50;85.50;;;;;;5076395;28;19909;-66
2022/07/30 12:10:11;;;;;;;;;;;25.50;85.40;;;;;;5075861;28;20022;-65
2022/07/30 12:12:37;;;;;;;;;;;25.50;85.40;;;;;;5075894;28;19908;-66
2022/07/30 12:15:03;;;;;;;;;;;25.50;85.40;;;;;;5076050;28;20418;-65
2022/07/30 12:17:41;;;;;;;;;;;25.40;85.30;;;;;;5076206;28;19915;-66
2022/07/30 12:20:13;;;;;;;;;;;25.40;85.30;;;;;;5058232;28;19954;-66
2022/07/30 12:22:39;;;;;;;;;;;25.40;85.30;;;;;;5058161;28;20048;-66
2022/07/30 12:25:05;;;;;;;;;;;25.50;85.40;;;;;;5057732;28;19912;-66
2022/07/30 12:27:31;;;;;;;;;;;25.50;85.30;;;;;;5057861;28;19908;-66
2022/07/30 12:29:57;;;;;;;;;;;25.50;85.30;;;;;;5075741;28;20003;-66
2022/07/30 12:32:22;;;;;;;;;;;25.50;85.30;;;;;;5057699;28;19915;-67
2022/07/30 12:34:57;;;;;;;;;;;25.50;85.80;;;;;;5075821;28;19938;-66
2022/07/30 12:37:23;;;;;;;;;;;25.50;85.40;;;;;;5075552;28;19957;-66
2022/07/30 12:39:49;;;;;;;;;;;25.50;85.30;;;;;;5075462;28;19912;-66
2022/07/30 12:42:18;;;;;;;;;;;25.50;85.30;;;;;;5057740;28;20416;-66
2022/07/30 12:44:44;;;;;;;;;;;25.40;85.20;;;;;;5075517;28;19924;-66
2022/07/30 12:47:23;;;;;;;;;;;25.40;85.10;;;;;;5057773;28;19909;-66
2022/07/30 12:49:49;;;;;;;;;;;25.50;85.80;;;;;;5075527;28;19909;-67
2022/07/30 12:52:25;;;;;;;;;;;25.50;85.20;;;;;;5057602;28;19909;-66
2022/07/30 12:54:56;;;;;;;;;;;25.50;85.20;;;;;;5075527;28;20366;-67
2022/07/30 12:57:22;;;;;;;;;;;25.40;85.10;;;;;;5075604;28;19909;-67
2022/07/30 12:59:59;;;;;;;;;;;25.40;85.10;;;;;;5074460;28;20435;-67
2022/07/30 13:02:33;;;;;;;;;;;25.50;85.20;;;;;;5075500;28;20011;-67
2022/07/30 13:04:59;;;;;;;;;;;25.40;85.10;;;;;;5075480;28;19913;-66
2022/07/30 13:07:28;;;;;;;;;;;25.40;85.10;;;;;;5057245;28;19909;-66
2022/07/30 13:10:17;;;;;;;;;;;25.50;85.20;;;;;;5075468;28;19954;-67
2022/07/30 13:12:44;;;;;;;;;;;25.40;85.10;;;;;;5074887;28;20069;-67
2022/07/30 13:15:15;;;;;;;;;;;25.40;85.10;;;;;;5074885;28;19923;-67
2022/07/30 13:17:41;;;;;;;;;;;25.40;85.10;;;;;;5057033;28;20351;-66
2022/07/30 13:20:07;;;;;;;;;;;25.40;85.00;;;;;;5075037;28;19908;-67
2022/07/30 13:22:32;;;;;;;;;;;25.50;85.10;;;;;;5074345;28;20413;-66
2022/07/30 13:24:59;;;;;;;;;;;25.40;85.00;;;;;;5074547;28;19947;-67
2022/07/30 13:27:24;;;;;;;;;;;25.40;85.00;;;;;;5075123;28;19912;-67
2022/07/30 13:29:50;;;;;;;;;;;25.40;85.00;;;;;;5074422;28;19914;-65
2022/07/30 13:32:15;;;;;;;;;;;25.40;84.90;;;;;;5074780;28;19919;-67
2022/07/30 13:34:40;;;;;;;;;;;25.50;85.00;;;;;;5074691;28;19909;-66
2022/07/30 13:37:06;;;;;;;;;;;25.40;84.90;;;;;;5075054;28;19908;-66
2022/07/30 13:39:32;;;;;;;;;;;25.40;85.00;;;;;;5074621;28;19918;-66
2022/07/30 13:41:57;;;;;;;;;;;25.40;84.90;;;;;;5073999;28;19913;-66
2022/07/30 13:44:23;;;;;;;;;;;25.50;85.00;;;;;;5073947;28;20003;-67
2022/07/30 13:46:48;;;;;;;;;;;25.40;84.90;;;;;;5074042;28;20327;-66
2022/07/30 13:49:14;;;;;;;;;;;25.40;84.90;;;;;;5074167;28;20374;-68
2022/07/30 13:51:39;;;;;;;;;;;25.40;84.80;;;;;;5056475;28;19977;-69
2022/07/30 13:54:06;;;;;;;;;;;25.40;84.80;;;;;;5074347;28;19908;-68
2022/07/30 13:56:31;;;;;;;;;;;25.40;84.80;;;;;;5074015;28;19955;-68
2022/07/30 13:58:57;;;;;;;;;;;25.40;84.80;;;;;;5074266;28;19960;-69
2022/07/30 14:01:23;;;;;;;;;;;25.40;84.80;;;;;;5074298;28;19950;-68
2022/07/30 14:03:48;;;;;;;;;;;25.40;84.80;;;;;;5056323;28;19939;-68
2022/07/30 14:06:14;;;;;;;;;;;25.40;84.80;;;;;;5055787;28;19912;-68
2022/07/30 14:08:39;;;;;;;;;;;25.40;84.80;;;;;;5074282;28;19915;-65
2022/07/30 14:11:05;;;;;;;;;;;25.40;84.80;;;;;;5073580;28;20299;-66
2022/07/30 14:13:30;;;;;;;;;;;25.40;84.80;;;;;;5074312;28;19908;-65
2022/07/30 14:15:55;;;;;;;;;;;25.40;84.80;;;;;;5074213;28;19908;-65
2022/07/30 14:18:21;;;;;;;;;;;25.40;84.80;;;;;;5073896;28;19909;-66